createdAt,value
2023-05-18T00:01:31.136Z,14.43
2023-05-18T00:04:12.779Z,14.30
2023-05-18T00:07:15.677Z,14.18
2023-05-18T00:09:48.411Z,14.12
2023-05-18T00:13:05.370Z,14.09
2023-05-18T00:15:46.184Z,14.05
2023-05-18T00:18:34.669Z,14.02
2023-05-18T00:21:22.115Z,13.96
2023-05-18T00:24:17.484Z,13.92
2023-05-18T00:27:10.926Z,13.90
2023-05-18T00:30:09.678Z,13.88
2023-05-18T00:33:13.855Z,13.87
2023-05-18T00:35:47.498Z,13.83
2023-05-18T00:38:53.221Z,13.78
2023-05-18T00:41:38.752Z,13.72
2023-05-18T00:44:48.326Z,13.70
2023-05-18T00:47:31.032Z,13.68
2023-05-18T00:50:50.434Z,13.61
2023-05-18T00:53:20.572Z,13.56
2023-05-18T00:56:48.179Z,13.47
2023-05-18T00:59:58.412Z,13.36
2023-05-18T01:02:54.116Z,13.32
2023-05-18T01:05:54.686Z,13.29
2023-05-18T01:08:37.967Z,13.23
2023-05-18T01:12:13.555Z,13.15
2023-05-18T01:15:43.786Z,13.09
2023-05-18T01:18:36.972Z,13.07
2023-05-18T01:21:53.176Z,13.06
2023-05-18T01:28:42.032Z,13.01
2023-05-18T01:31:29.551Z,13.01
2023-05-18T01:34:47.449Z,13.01
2023-05-18T01:38:15.088Z,13.03
2023-05-18T01:41:46.561Z,13.05
2023-05-18T01:45:17.027Z,13.03
2023-05-18T01:48:35.977Z,13.01
2023-05-18T01:51:57.388Z,13.00
2023-05-18T01:55:25.039Z,12.89
2023-05-18T01:58:45.348Z,12.73
2023-05-18T02:02:12.985Z,12.68
2023-05-18T02:05:30.910Z,12.67
2023-05-18T02:08:40.562Z,12.68
2023-05-18T02:12:08.242Z,12.69
2023-05-18T02:15:34.520Z,12.70
2023-05-18T02:19:02.208Z,12.71
2023-05-18T02:22:29.838Z,12.70
2023-05-18T02:25:57.421Z,12.70
2023-05-18T02:29:25.050Z,12.71
2023-05-18T02:32:54.107Z,12.70
2023-05-18T02:36:21.809Z,12.67
2023-05-18T02:39:30.332Z,12.59
2023-05-18T02:42:50.838Z,12.56
2023-05-18T02:45:48.448Z,12.57
2023-05-18T02:49:00.349Z,12.60
2023-05-18T02:52:20.806Z,12.65
2023-05-18T02:55:48.495Z,12.82
2023-05-18T02:59:16.117Z,13.03
2023-05-18T03:02:37.872Z,13.16
2023-05-18T03:05:53.046Z,13.24
2023-05-18T03:09:09.789Z,13.30
2023-05-18T03:11:54.880Z,13.28
2023-05-18T03:15:12.462Z,13.22
2023-05-18T03:18:15.906Z,13.21
2023-05-18T03:21:06.870Z,13.20
2023-05-18T03:23:56.746Z,13.20
2023-05-18T03:26:40.214Z,13.23
2023-05-18T03:29:34.551Z,13.28
2023-05-18T03:32:55.007Z,13.36
2023-05-18T03:35:42.287Z,13.47
2023-05-18T03:38:48.500Z,13.57
2023-05-18T03:41:30.945Z,13.71
2023-05-18T03:44:20.928Z,13.83
2023-05-18T03:47:48.571Z,13.97
2023-05-18T03:50:37.636Z,14.12
2023-05-18T03:53:37.663Z,14.23
2023-05-18T03:56:46.398Z,14.35
2023-05-18T04:00:06.707Z,14.53
2023-05-18T04:03:24.934Z,14.68
2023-05-18T04:06:26.888Z,14.87
2023-05-18T04:09:26.588Z,15.10
2023-05-18T04:12:23.370Z,15.37
2023-05-18T04:15:26.545Z,15.61
2023-05-18T04:18:40.267Z,15.89
2023-05-18T04:21:36.943Z,16.17
2023-05-18T04:24:42.012Z,16.39
2023-05-18T04:27:51.342Z,16.60
2023-05-18T04:31:14.084Z,16.83
2023-05-18T04:34:31.595Z,17.09
2023-05-18T04:37:41.641Z,17.53
2023-05-18T04:40:43.002Z,18.34
2023-05-18T04:43:16.186Z,19.65
2023-05-18T04:46:35.026Z,20.86
2023-05-18T04:49:42.527Z,21.97
2023-05-18T04:52:33.419Z,22.70
2023-05-18T04:55:36.737Z,23.02
2023-05-18T04:58:59.634Z,22.79
2023-05-18T05:02:09.966Z,22.45
2023-05-18T05:04:58.495Z,22.20
2023-05-18T05:08:04.892Z,22.15
2023-05-18T05:11:13.113Z,22.35
2023-05-18T05:14:23.083Z,22.63
2023-05-18T05:17:50.696Z,22.89
2023-05-18T05:21:09.728Z,23.09
2023-05-18T05:24:08.523Z,23.24
2023-05-18T05:26:50.134Z,23.40
2023-05-18T05:29:50.913Z,23.54
2023-05-18T05:32:38.622Z,23.65
2023-05-18T05:35:25.508Z,23.76
2023-05-18T05:38:06.516Z,23.82
2023-05-18T05:41:14.081Z,23.92
2023-05-18T05:44:09.712Z,24.07
2023-05-18T05:47:30.446Z,24.18
2023-05-18T05:50:33.502Z,24.24
2023-05-18T05:53:51.266Z,24.31
2023-05-18T05:56:48.967Z,24.34
2023-05-18T06:00:10.551Z,24.36
2023-05-18T06:03:38.288Z,24.40
2023-05-18T06:06:54.831Z,24.47
2023-05-18T06:09:55.557Z,24.50
2023-05-18T06:13:07.314Z,24.49
2023-05-18T06:16:03.027Z,24.47
2023-05-18T06:19:20.956Z,24.50
2023-05-18T06:22:31.968Z,24.53
2023-05-18T06:25:50.290Z,24.59
2023-05-18T06:29:03.241Z,24.62
2023-05-18T06:32:17.216Z,24.66
2023-05-18T06:35:35.342Z,24.77
2023-05-18T06:38:42.915Z,24.92
2023-05-18T06:42:00.151Z,24.99
2023-05-18T06:44:53.987Z,25.02
2023-05-18T06:47:54.103Z,25.06
2023-05-18T06:50:44.032Z,25.10
2023-05-18T06:53:50.585Z,25.12
2023-05-18T06:56:37.903Z,25.16
2023-05-18T06:59:45.620Z,25.24
2023-05-18T07:02:26.808Z,25.31
2023-05-18T07:05:09.346Z,25.38
2023-05-18T07:08:17.526Z,25.45
2023-05-18T07:11:18.913Z,25.51
2023-05-18T07:13:59.188Z,25.62
2023-05-18T07:17:08.603Z,25.68
2023-05-18T07:23:28.282Z,25.76
2023-05-18T07:26:43.020Z,25.84
2023-05-18T07:29:41.608Z,25.89
2023-05-18T07:32:39.544Z,25.90
2023-05-18T07:35:46.374Z,25.87
2023-05-18T07:38:34.361Z,25.85
2023-05-18T07:41:06.854Z,25.85
2023-05-18T07:44:25.256Z,25.92
2023-05-18T07:47:26.827Z,25.99
2023-05-18T07:50:27.361Z,26.12
2023-05-18T07:53:04.823Z,26.29
2023-05-18T07:55:57.345Z,26.40
2023-05-18T07:58:44.781Z,26.46
2023-05-18T08:01:38.395Z,26.52
2023-05-18T08:04:55.316Z,26.54
2023-05-18T08:07:33.028Z,26.58
2023-05-18T08:10:40.750Z,26.70
2023-05-18T08:13:33.887Z,26.86
2023-05-18T08:16:11.983Z,27.02
2023-05-18T08:18:54.872Z,27.13
2023-05-18T08:21:24.553Z,27.18
2023-05-18T08:24:27.978Z,27.29
2023-05-18T08:27:10.065Z,27.36
2023-05-18T08:29:46.721Z,27.33
2023-05-18T08:32:24.334Z,27.34
2023-05-18T08:35:32.650Z,27.40
2023-05-18T08:38:17.544Z,27.53
2023-05-18T08:41:13.520Z,27.54
2023-05-18T08:44:11.725Z,27.53
2023-05-18T08:47:30.429Z,27.60
2023-05-18T08:50:31.584Z,27.57
2023-05-18T08:53:39.678Z,27.50
2023-05-18T08:56:38.418Z,27.52
2023-05-18T08:59:46.849Z,27.64
2023-05-18T09:02:55.369Z,27.72
2023-05-18T09:06:05.185Z,27.62
2023-05-18T09:09:02.793Z,27.54
2023-05-18T09:11:38.734Z,27.59
2023-05-18T09:14:06.266Z,27.67
2023-05-18T09:17:08.244Z,27.79
2023-05-18T09:19:40.085Z,27.93
2023-05-18T09:22:22.353Z,28.08
2023-05-18T09:25:17.334Z,28.22
2023-05-18T09:27:57.919Z,28.27
2023-05-18T09:30:58.368Z,28.25
2023-05-18T09:33:52.167Z,28.13
2023-05-18T09:36:45.337Z,28.09
2023-05-18T09:39:46.437Z,28.04
2023-05-18T09:43:03.092Z,27.94
2023-05-18T09:46:09.709Z,27.91
2023-05-18T09:49:04.617Z,28.00
2023-05-18T09:52:12.125Z,28.14
2023-05-18T09:55:28.458Z,28.21
2023-05-18T09:58:41.548Z,28.14
2023-05-18T10:02:09.277Z,28.02
2023-05-18T10:05:18.207Z,28.06
2023-05-18T10:08:17.101Z,28.13
2023-05-18T10:11:25.764Z,28.29
2023-05-18T10:14:28.211Z,28.50
2023-05-18T10:17:30.490Z,28.66
2023-05-18T10:20:46.016Z,28.73
2023-05-18T10:23:26.419Z,28.78
2023-05-18T10:26:26.927Z,28.84
2023-05-18T10:33:20.677Z,28.94
2023-05-18T10:36:30.068Z,29.00
2023-05-18T10:39:30.483Z,29.06
2023-05-18T10:42:10.391Z,29.24
2023-05-18T10:44:50.848Z,29.47
2023-05-18T10:47:54.442Z,29.69
2023-05-18T10:51:05.664Z,29.93
2023-05-18T10:54:09.326Z,30.00
2023-05-18T10:56:48.230Z,30.06
2023-05-18T10:59:50.215Z,30.17
2023-05-18T11:02:45.490Z,30.23
2023-05-18T11:05:38.090Z,30.17
2023-05-18T11:08:54.748Z,30.16
2023-05-18T11:12:12.152Z,30.19
2023-05-18T11:15:39.809Z,30.20
2023-05-18T11:18:31.722Z,30.08
2023-05-18T11:21:36.538Z,30.10
2023-05-18T11:24:34.593Z,30.32
2023-05-18T11:27:28.347Z,30.60
2023-05-18T11:30:26.040Z,30.77
2023-05-18T11:33:24.056Z,30.84
2023-05-18T11:36:31.994Z,30.92
2023-05-18T11:39:26.652Z,31.08
2023-05-18T11:42:18.210Z,31.34
2023-05-18T11:44:57.339Z,31.67
2023-05-18T11:47:31.659Z,32.04
2023-05-18T11:50:02.736Z,32.42
2023-05-18T11:52:50.985Z,32.55
2023-05-18T11:55:39.035Z,32.55
2023-05-18T11:58:22.445Z,32.70
2023-05-18T12:00:52.540Z,32.86
2023-05-18T12:03:47.791Z,32.91
2023-05-18T12:06:22.120Z,32.94
2023-05-18T12:08:55.361Z,33.05
2023-05-18T12:11:39.246Z,33.16
2023-05-18T12:14:17.112Z,33.27
2023-05-18T12:16:50.090Z,33.37
2023-05-18T12:19:23.042Z,33.55
2023-05-18T12:21:52.801Z,33.70
2023-05-18T12:24:34.633Z,33.91
2023-05-18T12:27:07.645Z,34.07
2023-05-18T12:29:40.857Z,34.14
2023-05-18T12:32:23.809Z,34.25
2023-05-18T12:35:16.962Z,34.49
2023-05-18T12:38:01.948Z,34.67
2023-05-18T12:40:48.709Z,34.73
2023-05-18T12:43:34.388Z,34.79
2023-05-18T12:46:01.936Z,35.00
2023-05-18T12:48:30.977Z,35.12
2023-05-18T12:51:19.820Z,35.16
2023-05-18T12:53:59.546Z,35.02
2023-05-18T12:56:28.769Z,34.95
2023-05-18T12:58:59.255Z,34.95
2023-05-18T13:01:29.240Z,35.05
2023-05-18T13:03:58.726Z,35.30
2023-05-18T13:06:42.941Z,35.56
2023-05-18T13:09:13.588Z,35.87
2023-05-18T13:11:41.275Z,36.14
2023-05-18T13:14:10.632Z,36.35
2023-05-18T13:16:38.733Z,36.55
2023-05-18T13:19:07.050Z,36.75
2023-05-18T13:21:43.533Z,37.02
2023-05-18T13:24:13.810Z,37.19
2023-05-18T13:26:41.511Z,37.14
2023-05-18T13:29:18.100Z,37.13
2023-05-18T13:31:51.500Z,37.27
2023-05-18T13:34:19.520Z,37.40
2023-05-18T13:36:48.983Z,37.37
2023-05-18T13:39:26.430Z,37.38
2023-05-18T13:42:27.503Z,37.51
2023-05-18T13:45:30.202Z,37.69
2023-05-18T13:48:11.010Z,37.56
2023-05-18T13:50:51.808Z,37.31
2023-05-18T13:53:41.545Z,37.20
2023-05-18T13:56:28.079Z,37.19
2023-05-18T13:59:08.247Z,37.08
2023-05-18T14:01:35.729Z,37.00
2023-05-18T14:04:10.294Z,36.99
2023-05-18T14:06:51.225Z,36.97
2023-05-18T14:09:26.225Z,36.95
2023-05-18T14:11:56.596Z,36.90
2023-05-18T14:14:26.610Z,36.89
2023-05-18T14:17:27.643Z,36.82
2023-05-18T14:20:00.176Z,36.67
2023-05-18T14:22:30.724Z,36.61
2023-05-18T14:25:04.251Z,36.56
2023-05-18T14:27:43.359Z,36.15
2023-05-18T14:30:16.732Z,35.69
2023-05-18T14:32:47.067Z,35.25
2023-05-18T14:35:28.407Z,34.79
2023-05-18T14:37:55.683Z,34.46
2023-05-18T14:40:43.364Z,34.24
2023-05-18T14:43:33.100Z,33.91
2023-05-18T14:46:25.276Z,33.42
2023-05-18T14:48:52.593Z,32.74
2023-05-18T14:51:19.973Z,32.14
2023-05-18T14:53:47.580Z,31.60
2023-05-18T14:56:14.669Z,31.15
2023-05-18T14:59:02.253Z,30.76
2023-05-18T15:01:49.742Z,30.35
2023-05-18T15:04:17.614Z,29.99
2023-05-18T15:06:57.848Z,29.73
2023-05-18T15:09:36.194Z,29.47
2023-05-18T15:12:03.515Z,29.26
2023-05-18T15:14:43.735Z,29.07
2023-05-18T15:17:33.422Z,28.90
2023-05-18T15:20:04.028Z,28.73
2023-05-18T15:22:55.793Z,28.56
2023-05-18T15:25:36.516Z,28.43
2023-05-18T15:28:03.918Z,28.34
2023-05-18T15:30:31.393Z,28.25
2023-05-18T15:33:02.566Z,28.15
2023-05-18T15:35:53.122Z,28.04
2023-05-18T15:38:23.546Z,27.89
2023-05-18T15:41:11.494Z,27.78
2023-05-18T15:43:46.933Z,27.65
2023-05-18T15:46:19.674Z,27.55
2023-05-18T15:48:47.029Z,27.48
2023-05-18T15:51:15.438Z,27.38
2023-05-18T15:53:47.760Z,27.29
2023-05-18T15:56:19.121Z,27.26
2023-05-18T15:58:53.994Z,27.25
2023-05-18T16:02:01.565Z,27.20
2023-05-18T16:04:31.801Z,27.19
2023-05-18T16:07:03.764Z,27.21
2023-05-18T16:09:31.812Z,27.20
2023-05-18T16:11:59.065Z,27.18
2023-05-18T16:15:09.485Z,27.17
2023-05-18T16:18:20.193Z,27.18
2023-05-18T16:21:03.982Z,27.15
2023-05-18T16:24:02.739Z,27.15
2023-05-18T16:26:40.862Z,27.13
2023-05-18T16:29:31.564Z,27.10
2023-05-18T16:32:01.308Z,27.05
2023-05-18T16:35:07.836Z,26.98
2023-05-18T16:38:15.474Z,26.92
2023-05-18T16:40:57.761Z,26.86
2023-05-18T16:44:14.417Z,26.81
2023-05-18T16:46:49.190Z,26.77
2023-05-18T16:49:57.369Z,26.71
2023-05-18T16:52:24.558Z,26.66
2023-05-18T16:55:00.122Z,26.63
2023-05-18T16:58:00.148Z,26.58
2023-05-18T17:00:38.343Z,26.52
2023-05-18T17:03:45.269Z,26.46
2023-05-18T17:06:44.101Z,26.40
2023-05-18T17:09:23.971Z,26.34
2023-05-18T17:12:42.429Z,26.25
2023-05-18T17:15:31.063Z,26.15
2023-05-18T17:18:26.538Z,26.06
2023-05-18T17:21:06.221Z,25.95
2023-05-18T17:24:16.361Z,25.83
2023-05-18T17:27:16.598Z,25.64
2023-05-18T17:30:21.393Z,25.44
2023-05-18T17:33:38.803Z,25.23
2023-05-18T17:36:58.073Z,24.98
2023-05-18T17:39:57.851Z,24.76
2023-05-18T17:42:30.957Z,24.56
2023-05-18T17:45:40.661Z,24.38
2023-05-18T17:49:04.977Z,24.07
2023-05-18T17:52:15.283Z,23.79
2023-05-18T17:55:21.884Z,23.61
2023-05-18T17:58:31.924Z,23.46
2023-05-18T18:01:16.939Z,23.33
2023-05-18T18:04:00.532Z,23.22
2023-05-18T18:07:07.960Z,23.06
2023-05-18T18:09:58.026Z,22.82
2023-05-18T18:12:27.594Z,22.64
2023-05-18T18:14:54.822Z,22.54
2023-05-18T18:17:51.233Z,22.49
2023-05-18T18:20:18.581Z,22.39
2023-05-18T18:22:51.160Z,22.27
2023-05-18T18:25:21.135Z,22.19
2023-05-18T18:27:58.320Z,22.12
2023-05-18T18:31:06.282Z,22.08
2023-05-18T18:33:55.939Z,22.02
2023-05-18T18:36:42.135Z,21.95
2023-05-18T18:39:25.727Z,21.82
2023-05-18T18:42:20.524Z,21.68
2023-05-18T18:44:57.608Z,21.53
2023-05-18T18:47:42.191Z,21.38
2023-05-18T18:50:19.581Z,21.30
2023-05-18T18:53:17.002Z,21.23
2023-05-18T18:55:53.289Z,21.18
2023-05-18T18:58:24.393Z,21.12
2023-05-18T19:00:51.862Z,21.07
2023-05-18T19:03:34.573Z,21.02
2023-05-18T19:06:25.044Z,20.99
2023-05-18T19:08:55.265Z,20.98
2023-05-18T19:11:33.616Z,20.98
2023-05-18T19:14:01.075Z,20.97
2023-05-18T19:16:28.303Z,20.96
2023-05-18T19:19:09.032Z,20.90
2023-05-18T19:22:02.258Z,20.79
2023-05-18T19:24:41.570Z,20.68
2023-05-18T19:27:41.105Z,20.61
2023-05-18T19:30:22.379Z,20.55
2023-05-18T19:33:04.576Z,20.50
2023-05-18T19:36:13.820Z,20.48
2023-05-18T19:38:53.269Z,20.46
2023-05-18T19:41:26.960Z,20.45
2023-05-18T19:44:07.981Z,20.42
2023-05-18T19:47:18.678Z,20.40
2023-05-18T19:49:48.301Z,20.37
2023-05-18T19:52:35.724Z,20.36
2023-05-18T19:55:28.639Z,20.32
2023-05-18T19:58:26.250Z,20.30
2023-05-18T20:01:29.570Z,20.29
2023-05-18T20:04:35.538Z,20.27
2023-05-18T20:07:06.049Z,20.24
2023-05-18T20:09:41.876Z,20.21
2023-05-18T20:12:19.778Z,20.18
2023-05-18T20:14:51.588Z,20.16
2023-05-18T20:17:53.827Z,20.13
2023-05-18T20:20:25.477Z,20.09
2023-05-18T20:23:06.767Z,20.07
2023-05-18T20:25:48.142Z,20.05
2023-05-18T20:28:37.261Z,20.04
2023-05-18T20:31:12.510Z,20.04
2023-05-18T20:34:07.109Z,20.03
2023-05-18T20:36:44.478Z,20.01
2023-05-18T20:39:14.717Z,20.00
2023-05-18T20:41:58.926Z,19.97
2023-05-18T20:45:04.600Z,19.96
2023-05-18T20:48:25.476Z,19.94
2023-05-18T20:51:08.530Z,19.92
2023-05-18T20:54:07.169Z,19.89
2023-05-18T20:57:07.790Z,19.86
2023-05-18T21:00:00.969Z,19.84
2023-05-18T21:03:17.684Z,19.82
2023-05-18T21:06:14.422Z,19.81
2023-05-18T21:09:09.837Z,19.81
2023-05-18T21:11:51.357Z,19.83
2023-05-18T21:14:42.995Z,19.84
2023-05-18T21:17:10.146Z,19.86
2023-05-18T21:19:46.552Z,19.88
2023-05-18T21:22:14.082Z,19.90
2023-05-18T21:24:54.925Z,19.92
2023-05-18T21:28:12.783Z,19.95
2023-05-18T21:31:02.817Z,20.00
2023-05-18T21:33:51.117Z,20.05
2023-05-18T21:36:20.874Z,20.10
2023-05-18T21:38:56.422Z,20.14
2023-05-18T21:41:35.395Z,20.17
2023-05-18T21:44:36.358Z,20.21
2023-05-18T21:47:24.043Z,20.25
2023-05-18T21:49:53.604Z,20.28
2023-05-18T21:52:39.492Z,20.31
2023-05-18T21:55:40.557Z,20.34
2023-05-18T21:58:44.920Z,20.37
2023-05-18T22:02:02.591Z,20.39
2023-05-18T22:05:13.097Z,20.41
2023-05-18T22:08:20.234Z,20.43
2023-05-18T22:10:50.707Z,20.43
2023-05-18T22:14:17.002Z,20.41
2023-05-18T22:17:37.139Z,20.37
2023-05-18T22:20:50.624Z,20.32
2023-05-18T22:24:19.215Z,20.27
2023-05-18T22:27:22.951Z,20.20
2023-05-18T22:30:34.037Z,20.15
2023-05-18T22:33:54.286Z,20.12
2023-05-18T22:37:03.649Z,20.11
2023-05-18T22:40:31.521Z,20.11
2023-05-18T22:43:59.376Z,20.12
2023-05-18T22:47:27.064Z,20.13
2023-05-18T22:50:44.806Z,20.15
2023-05-18T22:54:05.296Z,20.16
2023-05-18T22:57:18.524Z,20.17
2023-05-18T23:00:45.358Z,20.19
2023-05-18T23:03:56.877Z,20.21
2023-05-18T23:07:23.991Z,20.23
2023-05-18T23:10:37.149Z,20.23
2023-05-18T23:13:53.116Z,20.24
2023-05-18T23:17:06.328Z,20.23
2023-05-18T23:20:18.271Z,20.24
2023-05-18T23:23:34.141Z,20.25
2023-05-18T23:26:54.812Z,20.24
2023-05-18T23:30:11.482Z,20.24
2023-05-18T23:33:32.179Z,20.22
2023-05-18T23:36:52.692Z,20.22
2023-05-18T23:40:09.442Z,20.20
2023-05-18T23:43:05.208Z,20.19
2023-05-18T23:46:06.753Z,20.19
2023-05-18T23:49:10.210Z,20.18
2023-05-18T23:52:37.894Z,20.17
2023-05-18T23:55:46.712Z,20.14
2023-05-18T23:58:32.438Z,20.12
